Alexandru Mihaila

Recruteur en chef - Viitorul
20 Févr 2028
Dimanche
Processus

Personnalité

Adaptabilité (5) Ambition (14) Controverse (10) Loyauté (2) Pression (2) Professionnalisme (13) Sportivité (12) Tempérament (1)

Profil

Style d'entraînement Démocratique
Diplôme Continental B
Détermination 5
Gestion des joueurs 8
Motivation 11
Discipline 10
Satisfaction professionnelle
100%
Fatigue
0%
Rôle Recruteur en chef
Salaire 55.7K p/s
Contrat 14.03.2029

Performance

Comportement Bon
Efficacité de l'entraînement
33%
Développement des joueurs
25%
Prévention des blessures
40%
Mise en place tactique
35%

Événements récents

A participé à une réunion de recrutement 7j
A participé à une réunion de recrutement 7j
A participé à une réunion de recrutement 14j
A participé à une réunion de recrutement 14j
A participé à une réunion de recrutement 14j
A participé à une réunion de recrutement 21j
A participé à une réunion de recrutement 21j
A participé à une réunion de recrutement 21j

Suivi en cours

79
Joueur Club Statut Capacité Confiance Observé Dernière observation Dernier vote
Alexandru Creţu Universitatea Craiova Perdu 104 / 110 55% 1 10.01.2028 -
Sam Nombe Milton Keynes Dons Actif 108 / 104 40% 4 22.07.2027 -
Giacomo Zecca Torres Actif 106 / 101 40% 1 22.07.2027 -
Simone Mazzocchi Cosenza Actif 116 / 106 40% 2 28.06.2027 -
Moussa Dembélé CR Belouizdad Actif 136 / 144 40% 4 14.06.2027 -
Ronan Hale Gillingham Actif 107 / 117 40% 3 14.06.2027 -
Bura Petrolul Actif 113 / 92 55% 1 01.06.2027 -
Lorenzo Di Stefano Torres Actif 118 / 108 40% 2 30.05.2027 -
Lewis Morgan SuperSport United Actif 129 / 129 40% 6 25.05.2027 -
Lewis McCann Fleetwood Town Actif 91 / 100 40% 2 25.05.2027 -
Kelly Saravanan Salford City Actif 111 / 119 40% 3 24.05.2027 -
Kyle Wootton Stockport County Actif 119 / 124 40% 2 24.05.2027 -
Iwan Morgan Grimsby Town Actif 110 / 119 40% 5 21.05.2027 -
Marcus Browne AFC Wimbledon Actif 101 / 111 40% 1 21.05.2027 -
Bojan Radulović Huddersfield Town Actif 106 / 107 40% 3 20.05.2027 -
Christian Saydee Wigan Athletic Actif 117 / 105 40% 4 19.05.2027 -
Josh Koroma Leyton Orient Actif 102 / 102 40% 2 19.05.2027 -
Mattia Bortolussi Padova Actif 117 / 127 40% 1 16.05.2027 -
Kwame Opoku Asante Kotoko Actif 101 / 109 40% 3 12.05.2027 -
Martin Sekulić Ural Actif 111 / 111 40% 1 12.05.2027 -
Themba Ngcobo SuperSport United Actif 112 / 104 40% 5 11.05.2027 -
Malik Mothersille Stockport County Actif 110 / 119 40% 2 09.05.2027 -
Lorent Tolaj Plymouth Argyle Actif 129 / 123 40% 3 08.05.2027 -
Alassana Jatta Notts County Actif 110 / 105 40% 1 08.05.2027 -
Camillo Tavernelli Arezzo Actif 116 / 110 40% 1 06.05.2027 -
Aaron Collins Milton Keynes Dons Actif 121 / 123 40% 2 04.05.2027 -
Lee Bonis Chesterfield Actif 101 / 97 40% 2 03.05.2027 -
Stephen Humphrys Bradford City Actif 108 / 100 40% 2 30.04.2027 -
Jonathan Gyan Liberty Professionals Actif 94 / 86 40% 3 28.04.2027 -
Abu Kamara Portsmouth Actif 110 / 120 40% 1 26.04.2027 -
Lamine Guèye Barrow AFC Actif 109 / 110 40% 1 23.04.2027 -
Francesco Petito Dolomiti Bellunesi Actif 103 / 96 40% 1 23.04.2027 -
Robert Mizo Ashanti Gold Actif 112 / 103 40% 1 18.04.2027 -
Mandla Mahlangu Ajax Cape Town Actif 119 / 87 40% 2 11.04.2027 -
Victor Adeboyejo Ismaily Actif 116 / 93 40% 3 09.04.2027 -
Mostafa Marwan Masr El Makasa Actif 104 / 102 40% 1 04.04.2027 -
John Okoye Ebuka Ittihad Actif 104 / 108 40% 3 03.04.2027 -
Tyreece Campbell Charlton Athletic Actif 110 / 117 40% 1 01.04.2027 -
Jayden Wareham Barnet Actif 101 / 102 40% 1 30.03.2027 -
Davis Keillor-Dunn Wrexham Actif 109 / 111 40% 1 28.03.2027 -
Aaron Drinan Swindon Town Actif 99 / 112 40% 1 27.03.2027 -
Rui Costa Port Vale Actif 106 / 117 40% 1 26.03.2027 -
Danyil Alefirenko Chornomorets Actif 115 / 115 40% 1 25.03.2027 -
Samuel Tetteh Ashanti Gold Actif 96 / 103 40% 1 24.03.2027 -
Mees Rijks Bristol Rovers Actif 114 / 107 40% 3 23.03.2027 -
Brayan León Mamelodi Sundowns Actif 135 / 129 40% 1 21.03.2027 -
Bernat Guiu Virtus Entella Actif 126 / 110 40% 1 20.03.2027 -
Dom Ballard Leyton Orient Actif 125 / 118 40% 2 18.03.2027 -
Elijah Adebayo Luton Town Actif 116 / 125 40% 2 14.03.2027 -
Dany Mota Monza Actif 132 / 124 40% 1 13.03.2027 -
Sam Bell Bristol City Actif 115 / 129 40% 1 13.03.2027 -
Carlton Morris Derby County Actif 116 / 121 40% 1 09.03.2027 -
Harry Cornick AFC Wimbledon Actif 101 / 96 40% 2 05.03.2027 -
Niall Ennis Blackpool Actif 113 / 111 40% 1 02.03.2027 -
Friday Ubong Ashanti Gold Actif 92 / 97 40% 1 01.03.2027 -
James Morris Leyton Orient Actif 115 / 119 40% 1 07.02.2027 -
Jay Matete Milton Keynes Dons Actif 112 / 110 40% 1 07.02.2027 -
Erick Jali Black Aces Actif 109 / 119 40% 2 04.02.2027 -
Nathan Moriah-Welsh Mansfield Town Actif 104 / 113 40% 1 04.02.2027 -
Carlos Mora Universitatea Craiova Actif 115 / 132 40% 1 03.02.2027 -
Dennis Cirkin Queens Park Rangers Actif 120 / 126 40% 1 03.02.2027 -
Álex Centelles Levski Actif 124 / 115 40% 1 03.02.2027 -
Nikita Kakkoev Nizhniy Novgorod Actif 115 / 115 40% 1 01.02.2027 -
Josh Tymon Swansea City Actif 132 / 132 40% 1 01.02.2027 -
Nicusor Tanase Pandurii Actif 106 / 113 51% 1 25.01.2027 -
Oleksii Hutsuliak Polissia Actif 128 / 119 40% 1 03.01.2027 -
Anderson Arroyo Rubin Actif 108 / 123 40% 2 07.12.2026 Plus d'infos
Malebogo Modise Polokwane City Actif 119 / 102 40% 1 07.12.2026 Plus d'infos
Luca Connell Barnsley Actif 119 / 110 40% 1 20.11.2026 -
Ryan Porteous Los Angeles Football Club Actif 95 / 130 40% 1 05.11.2026 -
António Eirô Lokomotiv Sofia Actif 107 / 121 40% 1 03.11.2026 -
Williams Manyama SuperSport United Actif 115 / 109 40% 1 03.11.2026 -
Mihály Kata MTK Budapest Actif 109 / 114 40% 1 02.11.2026 -
Francisco Barrios CFR Cluj Actif 98 / 99 40% 1 02.11.2026 -
Alexandru Cicaldau Pandurii Actif 126 / 107 51% 1 24.08.2026 -
Macaulay Langstaff Millwall Actif 104 / 106 40% 1 11.08.2026 -
Juan Manuel Requena Universitario Actif 118 / 110 40% 1 03.08.2026 -
Mauricio Márquez Caracas Actif 93 / 101 40% 1 02.08.2026 -
Yuki Ohashi Blackburn Rovers Actif 119 / 115 40% 1 02.08.2026 -